createdAt,value
2023-04-19T00:02:18.408Z,102222.78
2023-04-19T00:05:05.106Z,102221.13
2023-04-19T00:07:51.226Z,102233.16
2023-04-19T00:10:36.539Z,102233.91
2023-04-19T00:13:21.939Z,102234.00
2023-04-19T00:16:07.620Z,102222.84
2023-04-19T00:18:52.713Z,102228.81
2023-04-19T00:21:37.796Z,102227.97
2023-04-19T00:24:22.645Z,102228.97
2023-04-19T00:27:07.586Z,102222.00
2023-04-19T00:29:52.531Z,102211.63
2023-04-19T00:32:37.506Z,102218.47
2023-04-19T00:35:22.406Z,102214.25
2023-04-19T00:38:08.008Z,102216.09
2023-04-19T00:40:53.007Z,102213.53
2023-04-19T00:43:38.034Z,102213.59
2023-04-19T00:46:23.631Z,102211.75
2023-04-19T00:49:09.756Z,102205.69
2023-04-19T00:51:54.842Z,102200.47
2023-04-19T00:54:42.249Z,102205.66
2023-04-19T00:57:29.615Z,102201.25
2023-04-19T01:00:15.268Z,102202.00
2023-04-19T01:03:00.340Z,102194.91
2023-04-19T01:05:45.754Z,102184.19
2023-04-19T01:08:30.878Z,102189.16
2023-04-19T01:11:20.644Z,102190.84
2023-04-19T01:14:05.582Z,102191.81
2023-04-19T01:16:51.037Z,102188.44
2023-04-19T01:19:36.679Z,102181.78
2023-04-19T01:22:25.198Z,102186.91
2023-04-19T01:25:10.449Z,102193.03
2023-04-19T01:27:55.436Z,102189.41
2023-04-19T01:30:40.517Z,102184.19
2023-04-19T01:33:25.648Z,102177.97
2023-04-19T01:36:10.991Z,102183.22
2023-04-19T01:38:57.769Z,102182.34
2023-04-19T01:41:42.591Z,102172.81
2023-04-19T01:44:27.455Z,102171.03
2023-04-19T01:47:12.481Z,102165.19
2023-04-19T01:49:57.466Z,102172.69
2023-04-19T01:52:42.575Z,102168.38
2023-04-19T01:55:28.838Z,102163.94
2023-04-19T01:58:13.906Z,102165.75
2023-04-19T02:00:58.896Z,102160.66
2023-04-19T02:03:44.319Z,102164.69
2023-04-19T02:06:29.629Z,102152.69
2023-04-19T02:09:14.861Z,102169.75
2023-04-19T02:11:59.852Z,102160.25
2023-04-19T02:14:44.815Z,102163.72
2023-04-19T02:17:30.452Z,102154.16
2023-04-19T02:20:15.595Z,102151.50
2023-04-19T02:23:00.976Z,102149.84
2023-04-19T02:25:46.049Z,102151.53
2023-04-19T02:28:31.706Z,102132.53
2023-04-19T02:31:17.088Z,102134.97
2023-04-19T02:34:02.373Z,102138.00
2023-04-19T02:36:47.549Z,102132.91
2023-04-19T02:39:34.256Z,102150.91
2023-04-19T02:42:19.209Z,102148.47
2023-04-19T02:45:04.402Z,102133.88
2023-04-19T02:47:49.360Z,102150.06
2023-04-19T02:50:38.457Z,102151.75
2023-04-19T02:53:23.536Z,102149.25
2023-04-19T02:56:09.234Z,102154.41
2023-04-19T02:58:54.977Z,102147.50
2023-04-19T03:01:40.367Z,102144.88
2023-04-19T03:04:25.499Z,102145.06
2023-04-19T03:07:10.486Z,102149.31
2023-04-19T03:09:55.879Z,102149.25
2023-04-19T03:12:41.128Z,102143.25
2023-04-19T03:15:26.342Z,102140.69
2023-04-19T03:18:11.670Z,102140.56
2023-04-19T03:20:56.629Z,102143.19
2023-04-19T03:23:41.673Z,102138.00
2023-04-19T03:26:26.691Z,102144.94
2023-04-19T03:29:14.197Z,102132.91
2023-04-19T03:31:59.385Z,102135.47
2023-04-19T03:34:44.269Z,102126.16
2023-04-19T03:37:29.352Z,102138.94
2023-04-19T03:40:14.554Z,102145.94
2023-04-19T03:42:59.798Z,102136.44
2023-04-19T03:45:44.961Z,102133.81
2023-04-19T03:48:29.889Z,102136.38
2023-04-19T03:51:16.029Z,102135.41
2023-04-19T03:54:00.919Z,102131.84
2023-04-19T03:56:45.992Z,102134.38
2023-04-19T03:59:31.252Z,102120.75
2023-04-19T04:02:16.595Z,102131.69
2023-04-19T04:05:01.906Z,102131.69
2023-04-19T04:07:47.126Z,102129.81
2023-04-19T04:10:32.275Z,102126.41
2023-04-19T04:13:17.214Z,102133.34
2023-04-19T04:16:02.977Z,102130.84
2023-04-19T04:18:47.924Z,102127.50
2023-04-19T04:21:33.473Z,102128.91
2023-04-19T04:24:20.150Z,102126.28
2023-04-19T04:27:05.764Z,102128.94
2023-04-19T04:29:51.534Z,102126.28
2023-04-19T04:32:38.327Z,102132.38
2023-04-19T04:35:23.736Z,102126.34
2023-04-19T04:38:21.407Z,102116.09
2023-04-19T04:41:08.925Z,102129.91
2023-04-19T04:44:10.809Z,102131.69
2023-04-19T04:46:57.560Z,102120.50
2023-04-19T04:49:42.502Z,102123.81
2023-04-19T04:52:27.695Z,102128.94
2023-04-19T04:55:12.865Z,102109.13
2023-04-19T04:57:57.797Z,102123.69
2023-04-19T05:00:42.692Z,102118.69
2023-04-19T05:03:27.745Z,102124.00
2023-04-19T05:06:13.347Z,102144.59
2023-04-19T05:08:58.216Z,102141.91
2023-04-19T05:11:43.189Z,102152.31
2023-04-19T05:14:28.088Z,102159.19
2023-04-19T05:17:13.123Z,102153.94
2023-04-19T05:19:58.064Z,102138.69
2023-04-19T05:22:43.049Z,102139.53
2023-04-19T05:25:27.929Z,102142.03
2023-04-19T05:28:13.240Z,102153.03
2023-04-19T05:30:58.412Z,102155.72
2023-04-19T05:33:43.571Z,102156.50
2023-04-19T05:36:28.726Z,102150.38
2023-04-19T05:39:13.940Z,102154.56
2023-04-19T05:41:59.341Z,102153.66
2023-04-19T05:44:44.533Z,102150.09
2023-04-19T05:47:29.527Z,102146.66
2023-04-19T05:50:17.855Z,102148.47
2023-04-19T05:53:03.577Z,102142.91
2023-04-19T05:55:50.758Z,102152.81
2023-04-19T05:58:36.661Z,102121.84
2023-04-19T06:01:22.195Z,102157.81
2023-04-19T06:04:07.574Z,102157.72
2023-04-19T06:06:52.782Z,102157.59
2023-04-19T06:09:37.649Z,102155.16
2023-04-19T06:12:22.868Z,102157.53
2023-04-19T06:15:08.592Z,102159.16
2023-04-19T06:17:53.651Z,102158.19
2023-04-19T06:20:39.173Z,102149.56
2023-04-19T06:23:25.467Z,102133.16
2023-04-19T06:26:10.614Z,102162.81
2023-04-19T06:28:55.860Z,102155.81
2023-04-19T06:31:41.146Z,102164.84
2023-04-19T06:34:26.458Z,102164.72
2023-04-19T06:37:11.738Z,102160.16
2023-04-19T06:39:56.755Z,102161.75
2023-04-19T06:42:41.868Z,102140.16
2023-04-19T06:45:27.147Z,102161.34
2023-04-19T06:48:12.529Z,102159.44
2023-04-19T06:50:57.936Z,102162.59
2023-04-19T06:53:44.610Z,102161.50
2023-04-19T06:56:59.467Z,102168.88
2023-04-19T06:59:45.046Z,102159.25
2023-04-19T07:02:30.312Z,102170.94
2023-04-19T07:05:15.984Z,102169.06
2023-04-19T07:08:01.329Z,102187.91
2023-04-19T07:10:46.593Z,102183.31
2023-04-19T07:13:31.622Z,102184.81
2023-04-19T07:16:17.102Z,102188.81
2023-04-19T07:19:02.362Z,102186.84
2023-04-19T07:21:47.344Z,102195.22
2023-04-19T07:24:32.372Z,102198.19
2023-04-19T07:27:18.552Z,102198.03
2023-04-19T07:30:04.104Z,102191.59
2023-04-19T07:32:51.844Z,102180.47
2023-04-19T07:35:39.707Z,102191.25
2023-04-19T07:38:24.855Z,102197.97
2023-04-19T07:41:10.246Z,102191.63
2023-04-19T07:43:55.653Z,102189.44
2023-04-19T07:46:45.233Z,102198.78
2023-04-19T07:49:33.905Z,102196.63
2023-04-19T07:52:18.750Z,102202.50
2023-04-19T07:55:04.145Z,102202.50
2023-04-19T07:57:49.837Z,102209.78
2023-04-19T08:00:36.694Z,102199.81
2023-04-19T08:03:22.226Z,102202.28
2023-04-19T08:06:09.015Z,102210.63
2023-04-19T08:08:54.079Z,102212.06
2023-04-19T08:11:39.232Z,102206.09
2023-04-19T08:14:37.785Z,102207.25
2023-04-19T08:17:32.597Z,102203.94
2023-04-19T08:20:22.289Z,102214.56
2023-04-19T08:23:20.717Z,102213.56
2023-04-19T08:26:09.731Z,102213.88
2023-04-19T08:28:55.044Z,102220.28
2023-04-19T08:31:44.005Z,102215.59
2023-04-19T08:34:29.086Z,102217.25
2023-04-19T08:37:14.376Z,102212.66
2023-04-19T08:39:59.408Z,102219.44
2023-04-19T08:42:44.337Z,102216.66
2023-04-19T08:45:30.527Z,102211.00
2023-04-19T08:48:16.822Z,102217.81
2023-04-19T08:51:05.439Z,102215.72
2023-04-19T08:53:52.409Z,102212.19
2023-04-19T08:56:37.404Z,102217.38
2023-04-19T08:59:22.957Z,102213.09
2023-04-19T09:02:08.389Z,102211.91
2023-04-19T09:04:54.070Z,102219.38
2023-04-19T09:07:39.425Z,102219.06
2023-04-19T09:10:25.964Z,102219.69
2023-04-19T09:13:13.338Z,102217.22
2023-04-19T09:16:01.685Z,102215.38
2023-04-19T09:19:08.163Z,102220.69
2023-04-19T09:22:13.404Z,102218.34
2023-04-19T09:27:48.491Z,102221.13
2023-04-19T09:30:38.070Z,102207.34
2023-04-19T09:33:36.735Z,102214.06
2023-04-19T09:36:33.435Z,102214.50
2023-04-19T09:39:38.937Z,102217.03
2023-04-19T09:42:47.327Z,102216.13
2023-04-19T09:45:40.435Z,102211.63
2023-04-19T09:48:25.436Z,102224.09
2023-04-19T09:51:13.638Z,102217.25
2023-04-19T09:53:59.984Z,102220.50
2023-04-19T09:56:45.675Z,102210.72
2023-04-19T09:59:30.754Z,102208.88
2023-04-19T10:02:16.588Z,102193.41
2023-04-19T10:05:19.963Z,102201.47
2023-04-19T10:08:13.761Z,102197.31
2023-04-19T10:10:59.345Z,102185.09
2023-04-19T10:13:47.251Z,102200.78
2023-04-19T10:16:32.904Z,102199.50
2023-04-19T10:19:20.655Z,102178.34
2023-04-19T10:22:07.772Z,102190.75
2023-04-19T10:25:13.514Z,102189.38
2023-04-19T10:27:58.732Z,102190.59
2023-04-19T10:31:13.707Z,102184.47
2023-04-19T10:33:58.821Z,102181.19
2023-04-19T10:36:44.423Z,102175.50
2023-04-19T10:39:43.995Z,102168.34
2023-04-19T10:43:07.824Z,102179.44
2023-04-19T10:45:53.441Z,102173.16
2023-04-19T10:48:53.616Z,102160.16
2023-04-19T10:51:42.360Z,102148.13
2023-04-19T10:54:28.540Z,102140.97
2023-04-19T10:57:13.545Z,102159.34
2023-04-19T11:00:18.422Z,102146.84
2023-04-19T11:04:01.277Z,102149.22
2023-04-19T11:06:56.292Z,102144.97
2023-04-19T11:09:45.974Z,102139.84
2023-04-19T11:12:30.966Z,102147.19
2023-04-19T11:15:16.208Z,102141.44
2023-04-19T11:18:12.111Z,102124.47
2023-04-19T11:20:57.986Z,102138.91
2023-04-19T11:23:42.984Z,102132.16
2023-04-19T11:26:28.223Z,102135.94
2023-04-19T11:29:13.684Z,102132.34
2023-04-19T11:32:00.218Z,102105.06
2023-04-19T11:34:45.475Z,102137.47
2023-04-19T11:37:35.817Z,102130.13
2023-04-19T11:40:23.269Z,102136.19
2023-04-19T11:43:08.306Z,102114.56
2023-04-19T11:45:54.206Z,102115.88
2023-04-19T11:48:50.414Z,102121.59
2023-04-19T11:51:35.400Z,102094.34
2023-04-19T11:54:23.715Z,102100.31
2023-04-19T11:57:09.032Z,102106.34
2023-04-19T12:00:12.383Z,102109.44
2023-04-19T12:02:59.649Z,102105.22
2023-04-19T12:05:54.613Z,102105.53
2023-04-19T12:08:44.435Z,102099.94
2023-04-19T12:11:43.196Z,102102.97
2023-04-19T12:14:29.202Z,102099.34
2023-04-19T12:17:15.741Z,102087.84
2023-04-19T12:20:00.726Z,102090.66
2023-04-19T12:22:46.059Z,102092.22
2023-04-19T12:25:33.212Z,102088.84
2023-04-19T12:28:18.146Z,102084.41
2023-04-19T12:31:03.409Z,102070.34
2023-04-19T12:33:49.106Z,102070.59
2023-04-19T12:36:35.124Z,102082.00
2023-04-19T12:39:20.306Z,102095.19
2023-04-19T12:42:06.151Z,102090.97
2023-04-19T12:44:51.384Z,102087.09
2023-04-19T12:47:36.288Z,102085.66
2023-04-19T12:50:30.496Z,102075.00
2023-04-19T12:53:15.852Z,102102.94
2023-04-19T12:56:01.077Z,102080.06
2023-04-19T12:58:46.431Z,102087.81
2023-04-19T13:01:32.460Z,102093.78
2023-04-19T13:04:18.456Z,102062.63
2023-04-19T13:07:03.952Z,102070.72
2023-04-19T13:09:49.205Z,102074.03
2023-04-19T13:12:34.244Z,102080.56
2023-04-19T13:15:19.646Z,102071.47
2023-04-19T13:18:04.800Z,102085.91
2023-04-19T13:20:51.360Z,102061.34
2023-04-19T13:23:36.470Z,102083.69
2023-04-19T13:26:22.028Z,102082.09
2023-04-19T13:29:10.335Z,102077.91
2023-04-19T13:31:55.666Z,102061.81
2023-04-19T13:34:40.993Z,102077.34
2023-04-19T13:37:26.270Z,102082.19
2023-04-19T13:40:18.924Z,102081.44
2023-04-19T13:43:05.006Z,102095.13
2023-04-19T13:45:50.354Z,102061.53
2023-04-19T13:48:35.370Z,102061.09
2023-04-19T13:51:29.428Z,102076.66
2023-04-19T13:54:21.280Z,102082.28
2023-04-19T13:57:06.603Z,102072.53
2023-04-19T13:59:51.630Z,102067.63
2023-04-19T14:02:36.867Z,102084.63
2023-04-19T14:05:22.109Z,102080.88
2023-04-19T14:08:07.338Z,102063.41
2023-04-19T14:10:52.306Z,102075.09
2023-04-19T14:13:37.511Z,102066.78
2023-04-19T14:16:25.200Z,102069.69
2023-04-19T14:19:10.762Z,102073.03
2023-04-19T14:21:56.456Z,102064.88
2023-04-19T14:24:41.544Z,102072.38
2023-04-19T14:27:26.893Z,102088.50
2023-04-19T14:30:12.061Z,102061.59
2023-04-19T14:32:57.461Z,102059.31
2023-04-19T14:35:43.091Z,102075.13
2023-04-19T14:38:28.194Z,102068.97
2023-04-19T14:41:13.378Z,102063.81
2023-04-19T14:43:58.687Z,102061.50
2023-04-19T14:46:43.693Z,102066.78
2023-04-19T14:49:28.808Z,102055.09
2023-04-19T14:52:14.138Z,102071.84
2023-04-19T14:55:00.004Z,102072.09
2023-04-19T14:57:45.026Z,102078.47
2023-04-19T15:00:30.133Z,102070.16
2023-04-19T15:03:17.440Z,102061.94
2023-04-19T15:06:03.710Z,102063.28
2023-04-19T15:08:49.120Z,102058.84
2023-04-19T15:11:34.080Z,102051.22
2023-04-19T15:14:19.853Z,102055.22
2023-04-19T15:17:05.808Z,102058.69
2023-04-19T15:19:50.924Z,102070.69
2023-04-19T15:22:36.333Z,102055.88
2023-04-19T15:25:21.630Z,102067.47
2023-04-19T15:28:06.775Z,102061.41
2023-04-19T15:31:04.004Z,102053.66
2023-04-19T15:33:48.976Z,102048.81
2023-04-19T15:36:33.970Z,102064.09
2023-04-19T15:39:19.034Z,102045.91
2023-04-19T15:42:05.550Z,102059.91
2023-04-19T15:44:50.557Z,102062.47
2023-04-19T15:47:35.880Z,102062.97
2023-04-19T15:50:20.880Z,102054.22
2023-04-19T15:53:07.133Z,102060.38
2023-04-19T15:55:53.358Z,102049.47
2023-04-19T15:58:39.870Z,102052.53
2023-04-19T16:01:25.309Z,102059.91
2023-04-19T16:04:10.582Z,102053.03
2023-04-19T16:06:55.943Z,102048.00
2023-04-19T16:09:41.186Z,102052.66
2023-04-19T16:12:27.338Z,102052.69
2023-04-19T16:15:13.358Z,102060.78
2023-04-19T16:17:58.541Z,102035.03
2023-04-19T16:20:43.485Z,102041.53
2023-04-19T16:23:28.368Z,102059.28
2023-04-19T16:26:13.224Z,102047.75
2023-04-19T16:28:59.370Z,102048.19
2023-04-19T16:31:44.456Z,102052.41
2023-04-19T16:34:29.460Z,102047.66
2023-04-19T16:37:16.127Z,102046.50
2023-04-19T16:40:09.801Z,102057.97
2023-04-19T16:42:54.949Z,102054.34
2023-04-19T16:45:42.637Z,102053.59
2023-04-19T16:48:27.950Z,102061.00
2023-04-19T16:51:13.177Z,102068.97
2023-04-19T16:53:58.121Z,102077.78
2023-04-19T16:56:43.309Z,102068.88
2023-04-19T16:59:28.422Z,102076.25
2023-04-19T17:02:13.494Z,102064.28
2023-04-19T17:04:59.205Z,102073.19
2023-04-19T17:07:44.595Z,102066.91
2023-04-19T17:10:29.925Z,102056.06
2023-04-19T17:13:15.107Z,102060.59
2023-04-19T17:16:00.499Z,102057.19
2023-04-19T17:18:45.930Z,102064.22
2023-04-19T17:21:31.417Z,102047.72
2023-04-19T17:24:16.669Z,102064.44
2023-04-19T17:27:02.206Z,102066.44
2023-04-19T17:29:47.508Z,102066.69
2023-04-19T17:32:33.145Z,102060.97
2023-04-19T17:35:18.377Z,102057.56
2023-04-19T17:38:03.858Z,102065.38
2023-04-19T17:40:48.839Z,102049.09
2023-04-19T17:43:34.456Z,102036.22
2023-04-19T17:46:20.839Z,102056.22
2023-04-19T17:49:06.033Z,102032.59
2023-04-19T17:51:51.100Z,102052.44
2023-04-19T17:54:36.234Z,102051.91
2023-04-19T17:57:21.437Z,102033.38
2023-04-19T18:00:07.964Z,102045.63
2023-04-19T18:02:53.185Z,102037.25
2023-04-19T18:05:39.564Z,102034.00
2023-04-19T18:08:24.747Z,102017.41
2023-04-19T18:11:13.136Z,102043.25
2023-04-19T18:13:58.559Z,102039.84
2023-04-19T18:16:43.792Z,102027.56
2023-04-19T18:19:29.152Z,102033.97
2023-04-19T18:22:14.087Z,102041.72
2023-04-19T18:24:59.161Z,102042.97
2023-04-19T18:27:44.641Z,102043.19
2023-04-19T18:30:29.762Z,102040.63
2023-04-19T18:33:15.202Z,102042.56
2023-04-19T18:36:00.337Z,102040.06
2023-04-19T18:38:45.480Z,102042.00
2023-04-19T18:41:30.728Z,102038.00
2023-04-19T18:44:39.053Z,102047.72
2023-04-19T18:47:21.177Z,102041.34
2023-04-19T18:50:08.395Z,102059.75
2023-04-19T18:52:53.429Z,102058.06
2023-04-19T18:55:38.894Z,102070.38
2023-04-19T18:58:25.878Z,102079.50
2023-04-19T19:01:12.012Z,102071.91
2023-04-19T19:04:19.125Z,102073.22
2023-04-19T19:07:14.248Z,102081.72
2023-04-19T19:12:57.093Z,102089.81
2023-04-19T19:15:42.297Z,102066.84
2023-04-19T19:18:29.410Z,102083.13
2023-04-19T19:21:15.034Z,102084.81
2023-04-19T19:24:00.630Z,102090.28
2023-04-19T19:26:45.905Z,102085.88
2023-04-19T19:29:36.294Z,102093.16
2023-04-19T19:32:22.118Z,102063.47
2023-04-19T19:35:09.327Z,102090.94
2023-04-19T19:37:54.580Z,102093.75
2023-04-19T19:40:59.313Z,102098.13
2023-04-19T19:43:45.345Z,102096.44
2023-04-19T19:46:31.071Z,102089.78
2023-04-19T19:49:16.400Z,102089.16
2023-04-19T19:52:02.498Z,102082.66
2023-04-19T19:54:48.354Z,102080.88
2023-04-19T20:03:09.398Z,102084.31
2023-04-19T20:05:56.982Z,102103.34
2023-04-19T20:08:44.517Z,102108.81
2023-04-19T20:11:30.130Z,102103.63
2023-04-19T20:14:15.360Z,102117.81
2023-04-19T20:17:01.054Z,102099.94
2023-04-19T20:19:46.352Z,102105.47
2023-04-19T20:22:31.417Z,102106.25
2023-04-19T20:25:16.632Z,102105.19
2023-04-19T20:28:01.965Z,102103.78
2023-04-19T20:30:47.243Z,102097.06
2023-04-19T20:33:32.248Z,102082.56
2023-04-19T20:36:17.788Z,102089.38
2023-04-19T20:39:09.156Z,102088.75
2023-04-19T20:41:54.127Z,102094.97
2023-04-19T20:44:38.943Z,102096.88
2023-04-19T20:47:25.606Z,102113.56
2023-04-19T20:50:11.306Z,102130.25
2023-04-19T20:52:56.656Z,102119.84
2023-04-19T20:55:43.471Z,102120.84
2023-04-19T20:58:28.375Z,102129.44
2023-04-19T21:01:17.095Z,102117.28
2023-04-19T21:04:02.370Z,102119.88
2023-04-19T21:06:47.582Z,102121.81
2023-04-19T21:09:33.034Z,102115.75
2023-04-19T21:12:18.242Z,102083.16
2023-04-19T21:15:04.942Z,102114.91
2023-04-19T21:17:50.100Z,102110.47
2023-04-19T21:20:35.520Z,102106.22
2023-04-19T21:23:20.914Z,102110.53
2023-04-19T21:26:06.158Z,102105.41
2023-04-19T21:28:51.770Z,102090.13
2023-04-19T21:31:37.031Z,102070.19
2023-04-19T21:34:22.963Z,102097.88
2023-04-19T21:37:08.273Z,102091.00
2023-04-19T21:39:54.433Z,102085.84
2023-04-19T21:42:39.561Z,102082.31
2023-04-19T21:45:24.749Z,102088.50
2023-04-19T21:48:10.059Z,102073.88
2023-04-19T21:50:55.353Z,102084.25
2023-04-19T21:53:40.498Z,102096.47
2023-04-19T21:56:25.886Z,102072.50
2023-04-19T21:59:11.094Z,102093.94
2023-04-19T22:01:56.203Z,102078.63
2023-04-19T22:04:41.612Z,102089.81
2023-04-19T22:07:30.231Z,102098.41
2023-04-19T22:10:16.484Z,102083.75
2023-04-19T22:13:03.469Z,102082.09
2023-04-19T22:15:48.471Z,102085.56
2023-04-19T22:18:35.683Z,102090.84
2023-04-19T22:21:21.043Z,102079.59
2023-04-19T22:24:06.669Z,102072.72
2023-04-19T22:26:58.031Z,102062.50
2023-04-19T22:29:43.028Z,102073.50
2023-04-19T22:32:27.927Z,102074.47
2023-04-19T22:35:12.814Z,102064.16
2023-04-19T22:37:57.776Z,102065.78
2023-04-19T22:40:42.768Z,102063.19
2023-04-19T22:43:28.033Z,102059.78
2023-04-19T22:46:13.238Z,102055.47
2023-04-19T22:48:58.561Z,102044.34
2023-04-19T22:51:45.137Z,102047.97
2023-04-19T22:54:30.878Z,102036.88
2023-04-19T22:57:16.489Z,102046.28
2023-04-19T23:00:01.741Z,102061.91
2023-04-19T23:02:47.154Z,102046.28
2023-04-19T23:05:33.514Z,102052.31
2023-04-19T23:08:19.908Z,102051.50
2023-04-19T23:11:06.187Z,102056.72
2023-04-19T23:13:54.864Z,102048.97
2023-04-19T23:16:40.378Z,102048.09
2023-04-19T23:19:26.349Z,102045.69
2023-04-19T23:22:11.200Z,102024.16
2023-04-19T23:24:56.141Z,102042.19
2023-04-19T23:27:41.185Z,102036.31
2023-04-19T23:30:26.509Z,102037.22
2023-04-19T23:33:11.522Z,102023.53
2023-04-19T23:35:56.483Z,102030.34
2023-04-19T23:38:41.711Z,102030.41
2023-04-19T23:41:27.019Z,102020.06
2023-04-19T23:44:12.328Z,102018.53
2023-04-19T23:46:57.301Z,102023.53
2023-04-19T23:49:42.278Z,102014.06
2023-04-19T23:52:27.553Z,102018.38
2023-04-19T23:55:13.047Z,102017.53
2023-04-19T23:57:58.634Z,102006.28
